sensor_id;sensor_type;location;lat;lon;timestamp;pressure;altitude;pressure_sealevel;temperature;humidity
41246;BME280;53880;47.526;18.986;2023-03-21T00:01:56;99734.81;;;20.80;47.50
41246;BME280;53880;47.526;18.986;2023-03-21T00:04:12;99740.16;;;20.80;47.67
41246;BME280;53880;47.526;18.986;2023-03-21T00:06:29;99735.84;;;20.79;47.37
41246;BME280;53880;47.526;18.986;2023-03-21T00:08:47;99731.47;;;20.78;47.41
41246;BME280;53880;47.526;18.986;2023-03-21T00:11:06;99734.16;;;20.78;47.37
41246;BME280;53880;47.526;18.986;2023-03-21T00:13:23;99740.50;;;20.77;47.14
41246;BME280;53880;47.526;18.986;2023-03-21T00:15:44;99730.81;;;20.76;47.31
41246;BME280;53880;47.526;18.986;2023-03-21T00:18:13;99740.66;;;20.75;47.38
41246;BME280;53880;47.526;18.986;2023-03-21T00:20:31;99739.81;;;20.75;47.31
41246;BME280;53880;47.526;18.986;2023-03-21T00:22:48;99726.63;;;20.73;47.30
41246;BME280;53880;47.526;18.986;2023-03-21T00:25:09;99733.81;;;20.73;47.12
41246;BME280;53880;47.526;18.986;2023-03-21T00:27:24;99727.78;;;20.71;47.39
41246;BME280;53880;47.526;18.986;2023-03-21T00:29:43;99731.13;;;20.73;48.01
41246;BME280;53880;47.526;18.986;2023-03-21T00:32:06;99722.59;;;20.77;47.98
41246;BME280;53880;47.526;18.986;2023-03-21T00:34:25;99721.75;;;20.77;47.81
41246;BME280;53880;47.526;18.986;2023-03-21T00:36:40;99724.78;;;20.74;47.97
41246;BME280;53880;47.526;18.986;2023-03-21T00:39:00;99719.75;;;20.71;47.94
41246;BME280;53880;47.526;18.986;2023-03-21T00:41:18;99718.25;;;20.68;48.34
41246;BME280;53880;47.526;18.986;2023-03-21T00:43:34;99719.09;;;20.69;48.28
41246;BME280;53880;47.526;18.986;2023-03-21T00:45:56;99713.91;;;20.67;48.05
41246;BME280;53880;47.526;18.986;2023-03-21T00:48:17;99716.75;;;20.66;48.33
41246;BME280;53880;47.526;18.986;2023-03-21T00:50:37;99710.72;;;20.64;48.22
41246;BME280;53880;47.526;18.986;2023-03-21T00:52:54;99708.19;;;20.62;47.92
41246;BME280;53880;47.526;18.986;2023-03-21T00:55:15;99712.75;;;20.62;48.07
41246;BME280;53880;47.526;18.986;2023-03-21T00:57:32;99709.38;;;20.60;48.17
41246;BME280;53880;47.526;18.986;2023-03-21T00:59:47;99707.88;;;20.57;48.21
41246;BME280;53880;47.526;18.986;2023-03-21T01:02:03;99710.88;;;20.54;48.29
41246;BME280;53880;47.526;18.986;2023-03-21T01:04:23;99710.22;;;20.52;48.55
41246;BME280;53880;47.526;18.986;2023-03-21T01:06:42;99698.84;;;20.50;48.36
41246;BME280;53880;47.526;18.986;2023-03-21T01:09:01;99707.84;;;20.49;48.59
41246;BME280;53880;47.526;18.986;2023-03-21T01:11:25;99703.69;;;20.46;48.37
41246;BME280;53880;47.526;18.986;2023-03-21T01:13:44;99694.97;;;20.44;48.57
41246;BME280;53880;47.526;18.986;2023-03-21T01:15:59;99694.28;;;20.42;48.32
41246;BME280;53880;47.526;18.986;2023-03-21T01:18:22;99703.34;;;20.41;48.62
41246;BME280;53880;47.526;18.986;2023-03-21T01:20:45;99701.66;;;20.40;48.31
41246;BME280;53880;47.526;18.986;2023-03-21T01:23:04;99698.31;;;20.38;48.44
41246;BME280;53880;47.526;18.986;2023-03-21T01:25:24;99699.31;;;20.37;48.60
41246;BME280;53880;47.526;18.986;2023-03-21T01:27:45;99692.97;;;20.38;48.62
41246;BME280;53880;47.526;18.986;2023-03-21T01:30:06;99690.47;;;20.37;48.34
41246;BME280;53880;47.526;18.986;2023-03-21T01:32:22;99691.31;;;20.37;48.47
41246;BME280;53880;47.526;18.986;2023-03-21T01:34:39;99700.13;;;20.38;48.24
41246;BME280;53880;47.526;18.986;2023-03-21T01:36:54;99694.78;;;20.38;48.37
41246;BME280;53880;47.526;18.986;2023-03-21T01:39:12;99697.63;;;20.36;48.54
41246;BME280;53880;47.526;18.986;2023-03-21T01:41:34;99698.66;;;20.35;48.38
41246;BME280;53880;47.526;18.986;2023-03-21T01:43:50;99695.97;;;20.35;48.31
41246;BME280;53880;47.526;18.986;2023-03-21T01:52:12;99698.31;;;20.30;48.59
41246;BME280;53880;47.526;18.986;2023-03-21T01:54:41;99692.28;;;20.28;48.61
41246;BME280;53880;47.526;18.986;2023-03-21T01:57:06;99698.63;;;20.27;48.41
41246;BME280;53880;47.526;18.986;2023-03-21T01:59:30;99692.47;;;20.27;48.53
41246;BME280;53880;47.526;18.986;2023-03-21T02:02:18;99694.47;;;20.25;48.42
41246;BME280;53880;47.526;18.986;2023-03-21T02:05:01;99687.44;;;20.24;48.42
41246;BME280;53880;47.526;18.986;2023-03-21T02:07:25;99679.41;;;20.24;48.65
41246;BME280;53880;47.526;18.986;2023-03-21T02:09:49;99678.72;;;20.22;48.75
41246;BME280;53880;47.526;18.986;2023-03-21T02:12:09;99681.56;;;20.20;48.54
41246;BME280;53880;47.526;18.986;2023-03-21T02:14:29;99678.91;;;20.20;48.52
41246;BME280;53880;47.526;18.986;2023-03-21T02:19:29;99681.03;;;20.17;48.49
41246;BME280;53880;47.526;18.986;2023-03-21T02:32:11;99673.47;;;20.12;48.82
41246;BME280;53880;47.526;18.986;2023-03-21T02:47:04;99684.34;;;20.11;48.71
41246;BME280;53880;47.526;18.986;2023-03-21T02:52:07;99685.50;;;20.08;48.77
41246;BME280;53880;47.526;18.986;2023-03-21T02:54:27;99685.50;;;20.08;48.58
41246;BME280;53880;47.526;18.986;2023-03-21T02:56:53;99686.53;;;20.07;48.61
41246;BME280;53880;47.526;18.986;2023-03-21T02:59:11;99683.00;;;20.07;48.67
41246;BME280;53880;47.526;18.986;2023-03-21T03:01:29;99683.19;;;20.05;48.75
41246;BME280;53880;47.526;18.986;2023-03-21T03:03:44;99683.19;;;20.05;48.66
41246;BME280;53880;47.526;18.986;2023-03-21T03:06:06;99680.50;;;20.05;48.60
41246;BME280;53880;47.526;18.986;2023-03-21T03:16:05;99681.84;;;20.01;48.73
41246;BME280;53880;47.526;18.986;2023-03-21T03:18:58;99688.19;;;20.00;48.64
41246;BME280;53880;47.526;18.986;2023-03-21T03:21:30;99690.84;;;20.00;48.98
41246;BME280;53880;47.526;18.986;2023-03-21T03:23:52;99683.81;;;19.99;48.98
41246;BME280;53880;47.526;18.986;2023-03-21T03:29:17;99692.84;;;19.98;49.02
41246;BME280;53880;47.526;18.986;2023-03-21T03:31:40;99692.00;;;19.98;48.77
41246;BME280;53880;47.526;18.986;2023-03-21T03:34:05;99692.19;;;19.96;48.76
41246;BME280;53880;47.526;18.986;2023-03-21T03:36:31;99687.81;;;19.95;48.96
41246;BME280;53880;47.526;18.986;2023-03-21T03:38:59;99676.44;;;19.93;48.95
41246;BME280;53880;47.526;18.986;2023-03-21T03:41:27;99679.97;;;19.94;48.88
41246;BME280;53880;47.526;18.986;2023-03-21T03:43:54;99672.94;;;19.93;49.00
41246;BME280;53880;47.526;18.986;2023-03-21T03:46:38;99674.78;;;19.92;48.89
41246;BME280;53880;47.526;18.986;2023-03-21T03:49:03;99687.31;;;19.92;49.12
41246;BME280;53880;47.526;18.986;2023-03-21T03:51:35;99684.63;;;19.92;48.86
41246;BME280;53880;47.526;18.986;2023-03-21T03:54:20;99682.94;;;19.91;49.13
41246;BME280;53880;47.526;18.986;2023-03-21T03:56:38;99680.44;;;19.89;49.02
41246;BME280;53880;47.526;18.986;2023-03-21T03:58:58;99689.31;;;19.90;49.07
41246;BME280;53880;47.526;18.986;2023-03-21T04:01:36;99689.47;;;19.88;49.27
41246;BME280;53880;47.526;18.986;2023-03-21T04:03:55;99685.97;;;19.88;49.47
41246;BME280;53880;47.526;18.986;2023-03-21T04:06:18;99686.81;;;19.88;49.42
41246;BME280;53880;47.526;18.986;2023-03-21T04:08:42;99687.63;;;19.89;49.31
41246;BME280;53880;47.526;18.986;2023-03-21T04:11:00;99689.47;;;19.88;49.43
41246;BME280;53880;47.526;18.986;2023-03-21T04:13:18;99691.31;;;19.88;49.58
41246;BME280;53880;47.526;18.986;2023-03-21T04:15:52;99687.78;;;19.87;49.52
41246;BME280;53880;47.526;18.986;2023-03-21T04:18:10;99686.94;;;19.87;49.61
41246;BME280;53880;47.526;18.986;2023-03-21T04:20:27;99694.97;;;19.87;49.65
41246;BME280;53880;47.526;18.986;2023-03-21T04:22:45;99684.44;;;19.85;49.57
41246;BME280;53880;47.526;18.986;2023-03-21T04:25:08;99689.78;;;19.85;49.71
41246;BME280;53880;47.526;18.986;2023-03-21T04:27:33;99691.63;;;19.85;49.76
41246;BME280;53880;47.526;18.986;2023-03-21T04:30:23;99685.44;;;19.84;49.84
41246;BME280;53880;47.526;18.986;2023-03-21T04:33:01;99685.59;;;19.83;49.67
41246;BME280;53880;47.526;18.986;2023-03-21T04:35:19;99685.59;;;19.83;49.68
41246;BME280;53880;47.526;18.986;2023-03-21T04:37:37;99689.28;;;19.82;49.87
41246;BME280;53880;47.526;18.986;2023-03-21T04:40:03;99683.09;;;19.81;50.00
41246;BME280;53880;47.526;18.986;2023-03-21T04:42:23;99684.09;;;19.80;49.87
41246;BME280;53880;47.526;18.986;2023-03-21T04:44:40;99680.75;;;19.78;49.76
41246;BME280;53880;47.526;18.986;2023-03-21T04:46:56;99673.56;;;19.78;49.81
41246;BME280;53880;47.526;18.986;2023-03-21T04:49:13;99682.56;;;19.77;49.67
41246;BME280;53880;47.526;18.986;2023-03-21T04:51:35;99681.75;;;19.77;49.83
41246;BME280;53880;47.526;18.986;2023-03-21T04:53:55;99684.44;;;19.77;50.03
41246;BME280;53880;47.526;18.986;2023-03-21T04:56:16;99683.59;;;19.76;49.96
41246;BME280;53880;47.526;18.986;2023-03-21T04:58:38;99680.25;;;19.74;49.84
41246;BME280;53880;47.526;18.986;2023-03-21T05:00:57;99682.91;;;19.74;50.00
41246;BME280;53880;47.526;18.986;2023-03-21T05:03:16;99677.56;;;19.74;49.85
41246;BME280;53880;47.526;18.986;2023-03-21T05:05:39;99688.09;;;19.76;50.03
41246;BME280;53880;47.526;18.986;2023-03-21T05:07:59;99680.91;;;19.76;49.98
41246;BME280;53880;47.526;18.986;2023-03-21T05:10:17;99677.94;;;19.80;49.96
41246;BME280;53880;47.526;18.986;2023-03-21T05:12:34;99679.28;;;19.84;49.93
41246;BME280;53880;47.526;18.986;2023-03-21T05:14:53;99680.44;;;19.89;49.88
41246;BME280;53880;47.526;18.986;2023-03-21T05:17:11;99679.66;;;19.97;49.58
41246;BME280;53880;47.526;18.986;2023-03-21T05:19:38;99681.19;;;20.07;49.98
41246;BME280;53880;47.526;18.986;2023-03-21T05:21:56;99677.66;;;20.15;49.78
41246;BME280;53880;47.526;18.986;2023-03-21T05:24:20;99688.28;;;20.24;49.38
41246;BME280;53880;47.526;18.986;2023-03-21T05:26:40;99680.25;;;20.32;49.62
41246;BME280;53880;47.526;18.986;2023-03-21T05:29:03;99690.94;;;20.40;49.37
41246;BME280;53880;47.526;18.986;2023-03-21T05:31:24;99696.34;;;20.48;49.52
41246;BME280;53880;47.526;18.986;2023-03-21T05:33:52;99701.69;;;20.57;49.31
41246;BME280;53880;47.526;18.986;2023-03-21T05:36:13;99696.50;;;20.63;49.37
41246;BME280;53880;47.526;18.986;2023-03-21T05:38:31;99696.50;;;20.71;49.35
41246;BME280;53880;47.526;18.986;2023-03-21T05:40:47;99699.16;;;20.79;49.09
41246;BME280;53880;47.526;18.986;2023-03-21T05:43:06;99702.84;;;20.86;48.83
41246;BME280;53880;47.526;18.986;2023-03-21T05:45:23;99701.50;;;20.90;49.06
41246;BME280;53880;47.526;18.986;2023-03-21T05:47:46;99709.38;;;20.92;49.01
41246;BME280;53880;47.526;18.986;2023-03-21T05:50:02;99700.53;;;20.91;48.68
41246;BME280;53880;47.526;18.986;2023-03-21T05:52:21;99707.53;;;20.92;48.92
41246;BME280;53880;47.526;18.986;2023-03-21T05:54:39;99706.69;;;20.92;48.85
41246;BME280;53880;47.526;18.986;2023-03-21T05:56:55;99708.38;;;20.93;49.00
41246;BME280;53880;47.526;18.986;2023-03-21T05:59:36;99707.72;;;20.91;49.02
41246;BME280;53880;47.526;18.986;2023-03-21T06:01:55;99711.22;;;20.91;49.03
41246;BME280;53880;47.526;18.986;2023-03-21T06:04:15;99715.06;;;20.89;48.92
41246;BME280;53880;47.526;18.986;2023-03-21T06:06:31;99718.75;;;20.88;49.12
41246;BME280;53880;47.526;18.986;2023-03-21T06:08:52;99721.59;;;20.86;48.90
41246;BME280;53880;47.526;18.986;2023-03-21T06:11:26;99716.41;;;20.85;49.07
41246;BME280;53880;47.526;18.986;2023-03-21T06:14:03;99717.41;;;20.84;49.23
41246;BME280;53880;47.526;18.986;2023-03-21T06:16:19;99713.88;;;20.83;49.29
41246;BME280;53880;47.526;18.986;2023-03-21T06:18:39;99707.72;;;20.83;49.10
41246;BME280;53880;47.526;18.986;2023-03-21T06:21:20;99711.22;;;20.83;49.08
41246;BME280;53880;47.526;18.986;2023-03-21T06:23:38;99712.91;;;20.84;49.05
41246;BME280;53880;47.526;18.986;2023-03-21T06:25:53;99707.03;;;20.89;49.08
41246;BME280;53880;47.526;18.986;2023-03-21T06:28:14;99704.19;;;20.90;48.87
41246;BME280;53880;47.526;18.986;2023-03-21T06:30:34;99708.88;;;20.88;48.95
41246;BME280;53880;47.526;18.986;2023-03-21T06:33:01;99706.03;;;20.90;49.19
41246;BME280;53880;47.526;18.986;2023-03-21T06:35:19;99715.25;;;20.95;49.29
41246;BME280;53880;47.526;18.986;2023-03-21T06:37:36;99711.41;;;20.98;48.91
41246;BME280;53880;47.526;18.986;2023-03-21T06:39:58;99712.06;;;21.00;48.76
41246;BME280;53880;47.526;18.986;2023-03-21T06:42:18;99713.06;;;20.99;48.77
41246;BME280;53880;47.526;18.986;2023-03-21T06:44:37;99708.19;;;20.94;48.30
41246;BME280;53880;47.526;18.986;2023-03-21T06:46:56;99706.38;;;20.87;47.21
41246;BME280;53880;47.526;18.986;2023-03-21T06:49:11;99707.06;;;20.81;46.07
41246;BME280;53880;47.526;18.986;2023-03-21T06:51:29;99711.22;;;20.75;45.71
41246;BME280;53880;47.526;18.986;2023-03-21T06:54:03;99707.38;;;20.78;45.13
41246;BME280;53880;47.526;18.986;2023-03-21T06:56:35;99714.25;;;20.80;44.87
41246;BME280;53880;47.526;18.986;2023-03-21T06:58:58;99711.56;;;20.80;44.45
41246;BME280;53880;47.526;18.986;2023-03-21T07:01:38;99708.88;;;20.80;44.11
41246;BME280;53880;47.526;18.986;2023-03-21T07:03:57;99713.41;;;20.80;44.20
41246;BME280;53880;47.526;18.986;2023-03-21T07:06:17;99710.72;;;20.80;44.28
41246;BME280;53880;47.526;18.986;2023-03-21T07:08:39;99716.56;;;20.83;44.10
41246;BME280;53880;47.526;18.986;2023-03-21T07:10:57;99714.72;;;20.84;44.32
41246;BME280;53880;47.526;18.986;2023-03-21T07:13:15;99720.44;;;20.89;44.72
41246;BME280;53880;47.526;18.986;2023-03-21T07:15:35;99715.41;;;20.94;44.72
41246;BME280;53880;47.526;18.986;2023-03-21T07:17:53;99712.06;;;21.00;44.47
41246;BME280;53880;47.526;18.986;2023-03-21T07:20:14;99718.59;;;21.05;44.38
41246;BME280;53880;47.526;18.986;2023-03-21T07:22:34;99718.94;;;21.10;44.75
41246;BME280;53880;47.526;18.986;2023-03-21T07:24:49;99717.78;;;21.13;44.64
41246;BME280;53880;47.526;18.986;2023-03-21T07:27:07;99714.75;;;21.16;44.56
41246;BME280;53880;47.526;18.986;2023-03-21T07:29:24;99718.75;;;21.20;44.28
41246;BME280;53880;47.526;18.986;2023-03-21T07:31:46;99713.06;;;21.23;44.24
41246;BME280;53880;47.526;18.986;2023-03-21T07:34:06;99724.13;;;21.28;44.07
41246;BME280;53880;47.526;18.986;2023-03-21T07:36:27;99723.94;;;21.30;43.67
41246;BME280;53880;47.526;18.986;2023-03-21T07:38:45;99732.63;;;21.32;43.76
41246;BME280;53880;47.526;18.986;2023-03-21T07:41:08;99729.78;;;21.33;43.80
41246;BME280;53880;47.526;18.986;2023-03-21T07:43:25;99726.78;;;21.36;43.97
41246;BME280;53880;47.526;18.986;2023-03-21T07:45:41;99716.72;;;21.38;44.10
41246;BME280;53880;47.526;18.986;2023-03-21T07:48:00;99719.06;;;21.41;44.15
41246;BME280;53880;47.526;18.986;2023-03-21T07:50:19;99715.19;;;21.44;44.45
41246;BME280;53880;47.526;18.986;2023-03-21T07:52:35;99714.84;;;21.47;44.22
41246;BME280;53880;47.526;18.986;2023-03-21T07:54:55;99720.69;;;21.50;44.45
41246;BME280;53880;47.526;18.986;2023-03-21T07:57:12;99716.16;;;21.51;44.84
41246;BME280;53880;47.526;18.986;2023-03-21T07:59:30;99717.00;;;21.51;44.73
41246;BME280;53880;47.526;18.986;2023-03-21T08:01:49;99717.00;;;21.51;44.85
41246;BME280;53880;47.526;18.986;2023-03-21T08:04:07;99703.78;;;21.50;44.92
41246;BME280;53880;47.526;18.986;2023-03-21T08:06:22;99717.19;;;21.50;45.03
41246;BME280;53880;47.526;18.986;2023-03-21T08:08:43;99720.03;;;21.48;44.72
41246;BME280;53880;47.526;18.986;2023-03-21T08:11:00;99721.06;;;21.47;44.98
41246;BME280;53880;47.526;18.986;2023-03-21T08:13:17;99719.38;;;21.46;45.00
41246;BME280;53880;47.526;18.986;2023-03-21T08:15:32;99722.22;;;21.45;44.87
41246;BME280;53880;47.526;18.986;2023-03-21T08:17:50;99714.38;;;21.43;45.01
41246;BME280;53880;47.526;18.986;2023-03-21T08:20:07;99711.84;;;21.42;45.03
41246;BME280;53880;47.526;18.986;2023-03-21T08:22:30;99718.22;;;21.41;45.32
41246;BME280;53880;47.526;18.986;2023-03-21T08:24:49;99721.09;;;21.39;45.23
41246;BME280;53880;47.526;18.986;2023-03-21T08:27:07;99714.03;;;21.38;45.28
41246;BME280;53880;47.526;18.986;2023-03-21T08:29:25;99712.34;;;21.37;45.56
41246;BME280;53880;47.526;18.986;2023-03-21T08:31:46;99724.94;;;21.37;45.41
41246;BME280;53880;47.526;18.986;2023-03-21T08:34:06;99708.19;;;21.35;45.30
41246;BME280;53880;47.526;18.986;2023-03-21T08:36:24;99721.59;;;21.35;45.30
41246;BME280;53880;47.526;18.986;2023-03-21T08:38:39;99717.22;;;21.34;45.42
41246;BME280;53880;47.526;18.986;2023-03-21T08:41:02;99717.41;;;21.32;45.53
41246;BME280;53880;47.526;18.986;2023-03-21T08:43:19;99721.06;;;21.31;45.69
41246;BME280;53880;47.526;18.986;2023-03-21T08:45:34;99718.56;;;21.30;46.15
41246;BME280;53880;47.526;18.986;2023-03-21T08:47:50;99726.78;;;21.28;45.75
41246;BME280;53880;47.526;18.986;2023-03-21T08:50:13;99723.44;;;21.26;45.83
41246;BME280;53880;47.526;18.986;2023-03-21T08:52:31;99725.28;;;21.25;45.83
41246;BME280;53880;47.526;18.986;2023-03-21T08:54:51;99727.13;;;21.25;45.92
41246;BME280;53880;47.526;18.986;2023-03-21T08:57:09;99733.66;;;21.22;46.09
41246;BME280;53880;47.526;18.986;2023-03-21T08:59:25;99722.94;;;21.22;45.93
41246;BME280;53880;47.526;18.986;2023-03-21T09:01:40;99722.09;;;21.22;46.40
41246;BME280;53880;47.526;18.986;2023-03-21T09:03:56;99723.13;;;21.21;46.22
41246;BME280;53880;47.526;18.986;2023-03-21T09:06:13;99725.97;;;21.19;46.15
41246;BME280;53880;47.526;18.986;2023-03-21T09:08:30;99722.09;;;21.14;46.33
41246;BME280;53880;47.526;18.986;2023-03-21T09:10:47;99720.78;;;21.10;46.38
41246;BME280;53880;47.526;18.986;2023-03-21T09:13:06;99732.66;;;21.07;46.44
41246;BME280;53880;47.526;18.986;2023-03-21T09:15:25;99721.94;;;21.07;46.29
41246;BME280;53880;47.526;18.986;2023-03-21T09:17:48;99718.44;;;21.07;46.37
41246;BME280;53880;47.526;18.986;2023-03-21T09:20:12;99732.00;;;21.05;46.46
41246;BME280;53880;47.526;18.986;2023-03-21T09:22:40;99732.19;;;21.04;46.37
41246;BME280;53880;47.526;18.986;2023-03-21T09:24:57;99728.81;;;21.02;46.38
41246;BME280;53880;47.526;18.986;2023-03-21T09:27:13;99726.28;;;21.00;46.48
41246;BME280;53880;47.526;18.986;2023-03-21T09:29:33;99729.97;;;20.99;46.45
41246;BME280;53880;47.526;18.986;2023-03-21T09:31:51;99730.16;;;20.98;46.30
41246;BME280;53880;47.526;18.986;2023-03-21T09:34:09;99721.44;;;20.96;46.57
41246;BME280;53880;47.526;18.986;2023-03-21T09:36:30;99718.09;;;20.94;46.38
41246;BME280;53880;47.526;18.986;2023-03-21T09:38:54;99728.09;;;20.92;46.39
41246;BME280;53880;47.526;18.986;2023-03-21T09:41:29;99722.09;;;20.90;46.44
41246;BME280;53880;47.526;18.986;2023-03-21T09:48:56;99717.41;;;20.84;46.78
41246;BME280;53880;47.526;18.986;2023-03-21T09:51:15;99715.75;;;20.83;46.63
41246;BME280;53880;47.526;18.986;2023-03-21T09:53:39;99719.41;;;20.82;46.87
41246;BME280;53880;47.526;18.986;2023-03-21T09:56:05;99715.75;;;20.83;46.85
41246;BME280;53880;47.526;18.986;2023-03-21T09:58:35;99719.94;;;20.85;46.69
41246;BME280;53880;47.526;18.986;2023-03-21T10:03:39;99721.59;;;20.94;46.97
41246;BME280;53880;47.526;18.986;2023-03-21T10:06:01;99711.22;;;20.99;47.02
41246;BME280;53880;47.526;18.986;2023-03-21T10:08:27;99714.09;;;21.06;46.89
41246;BME280;53880;47.526;18.986;2023-03-21T10:10:51;99709.06;;;21.11;46.98
41246;BME280;53880;47.526;18.986;2023-03-21T10:13:21;99711.91;;;21.17;46.78
41246;BME280;53880;47.526;18.986;2023-03-21T10:15:38;99714.75;;;21.24;46.64
41246;BME280;53880;47.526;18.986;2023-03-21T10:20:21;99710.22;;;21.33;46.60
41246;BME280;53880;47.526;18.986;2023-03-21T10:22:39;99708.84;;;21.37;46.69
41246;BME280;53880;47.526;18.986;2023-03-21T10:24:58;99704.16;;;21.39;46.79
41246;BME280;53880;47.526;18.986;2023-03-21T10:27:13;99708.50;;;21.40;46.66
41246;BME280;53880;47.526;18.986;2023-03-21T10:29:36;99700.31;;;21.41;46.54
41246;BME280;53880;47.526;18.986;2023-03-21T10:31:59;99700.31;;;21.41;46.80
41246;BME280;53880;47.526;18.986;2023-03-21T10:34:32;99709.16;;;21.42;46.60
41246;BME280;53880;47.526;18.986;2023-03-21T10:36:56;99699.28;;;21.42;46.57
41246;BME280;53880;47.526;18.986;2023-03-21T10:39:26;99701.13;;;21.42;46.68
41246;BME280;53880;47.526;18.986;2023-03-21T10:41:48;99705.66;;;21.41;46.50
41246;BME280;53880;47.526;18.986;2023-03-21T10:44:17;99703.97;;;21.40;46.71
41246;BME280;53880;47.526;18.986;2023-03-21T10:46:37;99697.78;;;21.40;46.69
41246;BME280;53880;47.526;18.986;2023-03-21T10:48:55;99701.47;;;21.39;46.54
41246;BME280;53880;47.526;18.986;2023-03-21T10:51:20;99697.13;;;21.38;46.57
41246;BME280;53880;47.526;18.986;2023-03-21T10:53:39;99691.94;;;21.36;46.61
41246;BME280;53880;47.526;18.986;2023-03-21T10:55:58;99689.44;;;21.35;46.81
41246;BME280;53880;47.526;18.986;2023-03-21T10:58:20;99680.56;;;21.34;46.67
41246;BME280;53880;47.526;18.986;2023-03-21T11:00:42;99676.53;;;21.30;46.63
41246;BME280;53880;47.526;18.986;2023-03-21T11:03:02;99681.06;;;21.30;46.75
41246;BME280;53880;47.526;18.986;2023-03-21T11:05:41;99673.22;;;21.28;46.86
41246;BME280;53880;47.526;18.986;2023-03-21T11:10:34;99672.69;;;21.24;46.96
41246;BME280;53880;47.526;18.986;2023-03-21T11:12:55;99668.50;;;21.22;46.97
41246;BME280;53880;47.526;18.986;2023-03-21T11:15:32;99666.00;;;21.20;46.83
41246;BME280;53880;47.526;18.986;2023-03-21T11:17:52;99658.34;;;21.17;47.01
41246;BME280;53880;47.526;18.986;2023-03-21T11:20:19;99670.03;;;21.16;46.90
41246;BME280;53880;47.526;18.986;2023-03-21T11:22:40;99658.66;;;21.14;47.22
41246;BME280;53880;47.526;18.986;2023-03-21T11:25:01;99652.47;;;21.14;47.13
41246;BME280;53880;47.526;18.986;2023-03-21T11:27:19;99647.28;;;21.12;47.21
41246;BME280;53880;47.526;18.986;2023-03-21T11:29:47;99649.13;;;21.12;47.39
41246;BME280;53880;47.526;18.986;2023-03-21T11:32:29;99646.81;;;21.09;47.38
41246;BME280;53880;47.526;18.986;2023-03-21T11:35:00;99639.75;;;21.08;47.37
41246;BME280;53880;47.526;18.986;2023-03-21T11:37:20;99631.72;;;21.08;47.24
41246;BME280;53880;47.526;18.986;2023-03-21T11:39:40;99623.88;;;21.06;47.51
41246;BME280;53880;47.526;18.986;2023-03-21T11:41:58;99619.50;;;21.05;47.58
41246;BME280;53880;47.526;18.986;2023-03-21T11:44:34;99620.53;;;21.04;47.35
41246;BME280;53880;47.526;18.986;2023-03-21T11:46:59;99609.97;;;21.03;47.54
41246;BME280;53880;47.526;18.986;2023-03-21T11:49:21;99613.63;;;21.02;47.60
41246;BME280;53880;47.526;18.986;2023-03-21T11:51:40;99611.94;;;21.01;47.55
41246;BME280;53880;47.526;18.986;2023-03-21T11:56:30;99611.47;;;20.97;47.38
41246;BME280;53880;47.526;18.986;2023-03-21T12:01:29;99609.97;;;20.95;47.45
41246;BME280;53880;47.526;18.986;2023-03-21T12:03:54;99616.34;;;20.94;47.37
41246;BME280;53880;47.526;18.986;2023-03-21T12:09:10;99596.91;;;20.92;47.56
41246;BME280;53880;47.526;18.986;2023-03-21T12:11:36;99605.94;;;20.91;47.58
41246;BME280;53880;47.526;18.986;2023-03-21T12:14:02;99603.47;;;20.89;47.70
41246;BME280;53880;47.526;18.986;2023-03-21T12:24:55;99611.47;;;20.81;47.64
41246;BME280;53880;47.526;18.986;2023-03-21T12:35:48;99600.47;;;20.76;47.96
41246;BME280;53880;47.526;18.986;2023-03-21T12:46:05;99591.09;;;20.72;47.68
41246;BME280;53880;47.526;18.986;2023-03-21T12:48:40;99583.22;;;20.71;47.79
41246;BME280;53880;47.526;18.986;2023-03-21T12:51:01;99580.53;;;20.71;48.02
41246;BME280;53880;47.526;18.986;2023-03-21T12:53:55;99580.53;;;20.71;47.84
41246;BME280;53880;47.526;18.986;2023-03-21T12:56:26;99572.50;;;20.71;47.95
41246;BME280;53880;47.526;18.986;2023-03-21T12:58:59;99567.16;;;20.71;47.94
41246;BME280;53880;47.526;18.986;2023-03-21T13:01:19;99561.00;;;20.70;48.24
41246;BME280;53880;47.526;18.986;2023-03-21T13:03:45;99562.84;;;20.70;48.05
41246;BME280;53880;47.526;18.986;2023-03-21T13:06:06;99566.69;;;20.67;48.21
41246;BME280;53880;47.526;18.986;2023-03-21T13:11:02;99558.81;;;20.66;47.92
41246;BME280;53880;47.526;18.986;2023-03-21T13:20:48;99549.63;;;20.60;47.92
41246;BME280;53880;47.526;18.986;2023-03-21T13:23:06;99542.44;;;20.61;47.79
41246;BME280;53880;47.526;18.986;2023-03-21T13:25:27;99545.28;;;20.59;47.70
41246;BME280;53880;47.526;18.986;2023-03-21T13:28:18;99546.28;;;20.58;48.04
41246;BME280;53880;47.526;18.986;2023-03-21T13:30:38;99549.97;;;20.57;47.70
41246;BME280;53880;47.526;18.986;2023-03-21T13:33:15;99556.31;;;20.56;47.83
41246;BME280;53880;47.526;18.986;2023-03-21T13:35:43;99557.50;;;20.53;47.82
41246;BME280;53880;47.526;18.986;2023-03-21T13:38:27;99551.47;;;20.51;46.81
41246;BME280;53880;47.526;18.986;2023-03-21T13:46:15;99538.59;;;20.47;44.42
41246;BME280;53880;47.526;18.986;2023-03-21T13:54:00;99530.75;;;20.62;44.60
41246;BME280;53880;47.526;18.986;2023-03-21T13:56:22;99535.88;;;20.71;44.72
41246;BME280;53880;47.526;18.986;2023-03-21T13:58:51;99536.50;;;20.81;44.69
41246;BME280;53880;47.526;18.986;2023-03-21T14:03:49;99511.88;;;21.02;45.07
41246;BME280;53880;47.526;18.986;2023-03-21T14:06:05;99516.56;;;21.08;45.17
41246;BME280;53880;47.526;18.986;2023-03-21T14:08:30;99511.50;;;21.13;45.19
41246;BME280;53880;47.526;18.986;2023-03-21T14:10:51;99509.31;;;21.16;45.23
41246;BME280;53880;47.526;18.986;2023-03-21T14:13:16;99506.13;;;21.21;45.22
41246;BME280;53880;47.526;18.986;2023-03-21T14:15:41;99506.78;;;21.23;45.38
41246;BME280;53880;47.526;18.986;2023-03-21T14:18:00;99504.56;;;21.26;45.68